Time;durP1;ratioP1;P1;durP2;ratioP2;P2;SDS_P1;SDS_P2;PMS_P1;PMS_P2;Temp;Humidity;BMP_temperature;BMP_pressure;BME280_temperature;BME280_humidity;BME280_pressure;Samples;Min_cycle;Max_cycle;Signal;HPM_P1;HPM_P2
2023/12/25 00:01:09;;;;;;;8.50;3.07;;;8.80;99.90;;;;;;5128461;27;20221;-63
2023/12/25 00:03:37;;;;;;;3.93;2.60;;;8.90;99.90;;;;;;5128329;27;20225;-64
2023/12/25 00:06:11;;;;;;;7.37;2.50;;;8.90;99.90;;;;;;5128661;27;20186;-64
2023/12/25 00:08:40;;;;;;;4.80;2.40;;;8.90;99.90;;;;;;5135233;27;20245;-66
2023/12/25 00:11:11;;;;;;;2.73;2.30;;;8.90;99.90;;;;;;5138282;27;20195;-68
2023/12/25 00:13:39;;;;;;;4.43;2.40;;;8.90;99.90;;;;;;5128841;27;20201;-66
2023/12/25 00:16:08;;;;;;;4.63;2.30;;;8.80;99.90;;;;;;5120364;28;20201;-64
2023/12/25 00:18:37;;;;;;;2.77;2.10;;;8.80;99.90;;;;;;5127856;28;20202;-65
2023/12/25 00:21:06;;;;;;;6.97;2.30;;;8.80;99.90;;;;;;5128791;28;20229;-63
2023/12/25 00:23:34;;;;;;;5.73;2.47;;;8.80;99.90;;;;;;5124459;27;20223;-64
2023/12/25 00:26:03;;;;;;;6.83;3.00;;;8.80;99.90;;;;;;5149749;27;20200;-66
2023/12/25 00:28:33;;;;;;;5.43;2.37;;;8.80;99.90;;;;;;5149912;27;20198;-63
2023/12/25 00:31:02;;;;;;;4.30;2.47;;;8.70;99.90;;;;;;5149613;27;20218;-66
2023/12/25 00:33:31;;;;;;;8.47;2.40;;;8.80;99.90;;;;;;5130327;27;20568;-65
2023/12/25 00:36:01;;;;;;;3.23;2.80;;;8.80;99.90;;;;;;5130762;27;20201;-65
2023/12/25 00:38:29;;;;;;;5.13;2.80;;;8.80;99.90;;;;;;5149851;27;20197;-65
2023/12/25 00:40:58;;;;;;;3.57;2.33;;;8.80;99.90;;;;;;5130512;27;20536;-64
2023/12/25 00:43:27;;;;;;;8.83;2.70;;;8.70;99.90;;;;;;5149610;27;20272;-65
2023/12/25 00:45:58;;;;;;;7.13;2.80;;;8.80;99.90;;;;;;5129707;27;20736;-63
2023/12/25 00:48:28;;;;;;;5.90;2.83;;;8.70;99.90;;;;;;5130874;27;20209;-64
2023/12/25 00:50:56;;;;;;;5.03;2.27;;;8.80;99.90;;;;;;5130637;27;20213;-64
2023/12/25 00:53:25;;;;;;;4.33;2.60;;;8.80;99.90;;;;;;5149409;27;20694;-67
2023/12/25 00:55:54;;;;;;;5.30;2.80;;;8.70;99.90;;;;;;5131160;27;20578;-62
2023/12/25 00:58:23;;;;;;;4.53;2.60;;;8.80;99.90;;;;;;5150137;27;20648;-66
2023/12/25 01:00:52;;;;;;;5.97;2.40;;;8.80;99.90;;;;;;5130768;27;20207;-66
2023/12/25 01:03:22;;;;;;;4.37;2.40;;;8.80;99.90;;;;;;5130945;27;20200;-64
2023/12/25 01:05:50;;;;;;;6.40;2.60;;;8.80;99.90;;;;;;5149359;27;20714;-62
2023/12/25 01:08:19;;;;;;;3.63;2.10;;;8.80;99.90;;;;;;5130700;27;20215;-63
2023/12/25 01:10:48;;;;;;;5.57;2.87;;;8.90;99.90;;;;;;5125587;28;20297;-63
2023/12/25 01:13:17;;;;;;;3.50;2.40;;;8.80;99.90;;;;;;5123421;28;20208;-67
2023/12/25 01:15:46;;;;;;;4.40;2.77;;;8.80;99.90;;;;;;5126714;28;20800;-64
2023/12/25 01:18:14;;;;;;;5.77;2.87;;;8.80;99.90;;;;;;5145537;27;20286;-64
2023/12/25 01:20:50;;;;;;;6.13;2.93;;;8.80;99.90;;;;;;5130883;27;20202;-64
2023/12/25 01:23:39;;;;;;;5.73;2.70;;;8.80;99.90;;;;;;5141903;27;20224;-64
2023/12/25 01:26:08;;;;;;;6.60;2.97;;;8.90;99.90;;;;;;5153238;27;20192;-64
2023/12/25 01:28:40;;;;;;;9.43;2.87;;;8.80;99.90;;;;;;5153305;27;20194;-64
2023/12/25 01:31:08;;;;;;;7.37;3.50;;;8.80;99.90;;;;;;5152732;27;20197;-64
2023/12/25 01:33:37;;;;;;;13.77;4.00;;;8.80;99.90;;;;;;5152760;27;20199;-65
2023/12/25 01:36:07;;;;;;;10.60;5.13;;;8.80;99.90;;;;;;5133684;27;20201;-66
2023/12/25 01:38:36;;;;;;;9.73;3.50;;;8.80;99.90;;;;;;5152752;27;20208;-64
2023/12/25 01:41:05;;;;;;;13.40;3.90;;;8.80;99.90;;;;;;5152625;27;20283;-63
2023/12/25 01:43:34;;;;;;;15.90;3.77;;;8.80;99.90;;;;;;5151675;27;20247;-63
2023/12/25 01:46:03;;;;;;;10.30;3.70;;;8.90;99.90;;;;;;5141333;27;20230;-64
2023/12/25 01:48:33;;;;;;;9.57;3.80;;;8.80;99.90;;;;;;5145735;27;20196;-67
2023/12/25 01:51:03;;;;;;;15.43;3.73;;;8.90;99.90;;;;;;5152801;27;20193;-64
2023/12/25 01:53:34;;;;;;;15.40;3.90;;;8.90;99.90;;;;;;5152824;27;20198;-64
2023/12/25 01:56:03;;;;;;;14.37;4.20;;;8.90;99.90;;;;;;5152794;27;20676;-63
2023/12/25 01:58:31;;;;;;;16.50;4.33;;;8.90;99.90;;;;;;5134022;27;20210;-62
2023/12/25 02:01:00;;;;;;;22.63;4.83;;;9.00;99.90;;;;;;5133657;27;20244;-65
2023/12/25 02:03:29;;;;;;;16.97;4.57;;;9.00;99.90;;;;;;5152717;27;20251;-65
2023/12/25 02:05:58;;;;;;;12.73;4.27;;;9.00;99.90;;;;;;5152858;27;20209;-64
2023/12/25 02:08:27;;;;;;;15.13;5.20;;;9.10;99.90;;;;;;5166780;27;20653;-65
2023/12/25 02:11:03;;;;;;;24.47;5.50;;;9.00;99.90;;;;;;5154678;27;20287;-64
2023/12/25 02:13:32;;;;;;;15.60;4.40;;;9.00;99.90;;;;;;5154823;27;20212;-65
2023/12/25 02:16:03;;;;;;;20.67;5.30;;;9.00;99.90;;;;;;5173474;27;20185;-64
2023/12/25 02:18:32;;;;;;;18.97;5.23;;;9.00;99.90;;;;;;5173682;27;20193;-63
2023/12/25 02:21:02;;;;;;;14.17;4.83;;;9.00;99.90;;;;;;5154839;27;20203;-63
2023/12/25 02:23:34;;;;;;;22.00;5.20;;;9.00;99.90;;;;;;5173451;27;20684;-66
2023/12/25 02:26:06;;;;;;;14.27;4.93;;;9.10;99.90;;;;;;5173515;27;20216;-65
2023/12/25 02:28:35;;;;;;;18.67;5.07;;;9.10;99.90;;;;;;5173206;27;20196;-65
2023/12/25 02:31:05;;;;;;;16.83;4.80;;;9.00;99.90;;;;;;5154342;27;20215;-65
2023/12/25 02:33:34;;;;;;;17.80;4.43;;;9.00;99.90;;;;;;5173236;27;20226;-64
2023/12/25 02:36:03;;;;;;;13.70;4.77;;;8.90;99.90;;;;;;5153649;27;20222;-64
2023/12/25 02:38:31;;;;;;;22.93;5.60;;;9.00;99.90;;;;;;5167136;27;20280;-64
2023/12/25 02:41:00;;;;;;;24.20;4.57;;;9.00;99.90;;;;;;5139100;27;20247;-64
2023/12/25 02:43:30;;;;;;;18.30;4.43;;;9.10;99.90;;;;;;5148772;27;20223;-65
2023/12/25 02:45:58;;;;;;;17.90;4.50;;;9.00;99.90;;;;;;5133222;27;20202;-66
2023/12/25 02:48:27;;;;;;;10.43;4.00;;;8.90;99.90;;;;;;5160404;27;20289;-65
2023/12/25 02:50:56;;;;;;;20.47;4.80;;;8.90;99.90;;;;;;5172813;27;20195;-65
2023/12/25 02:53:24;;;;;;;22.73;4.77;;;8.90;99.90;;;;;;5172470;27;20203;-65
2023/12/25 02:55:53;;;;;;;16.17;4.53;;;9.00;99.90;;;;;;5172780;27;20277;-65
2023/12/25 02:58:21;;;;;;;22.97;5.27;;;9.00;99.90;;;;;;5153832;27;20712;-66
2023/12/25 03:00:51;;;;;;;20.07;5.33;;;8.90;99.90;;;;;;5153647;27;20578;-67
2023/12/25 03:03:20;;;;;;;19.63;4.63;;;8.90;99.90;;;;;;5172318;27;20230;-65
2023/12/25 03:05:49;;;;;;;17.30;4.67;;;9.00;99.90;;;;;;5153556;27;20210;-64
2023/12/25 03:08:17;;;;;;;20.87;4.87;;;9.00;99.90;;;;;;5151088;27;20564;-65
2023/12/25 03:10:46;;;;;;;15.87;4.17;;;9.00;99.90;;;;;;5153467;27;20251;-64
2023/12/25 03:13:14;;;;;;;20.13;5.13;;;9.00;99.90;;;;;;5172298;27;20186;-63
2023/12/25 03:15:43;;;;;;;20.43;5.37;;;9.00;99.90;;;;;;5153280;27;20730;-62
2023/12/25 03:18:13;;;;;;;19.37;4.90;;;9.00;99.90;;;;;;5172231;27;20184;-65
2023/12/25 03:20:42;;;;;;;17.83;5.50;;;9.00;99.90;;;;;;5153487;27;20208;-64
2023/12/25 03:23:11;;;;;;;19.10;5.67;;;9.10;99.90;;;;;;5153105;27;20329;-64
2023/12/25 03:25:40;;;;;;;17.53;5.00;;;9.10;99.90;;;;;;5153137;27;20226;-67
2023/12/25 03:28:08;;;;;;;23.10;5.27;;;9.10;99.90;;;;;;5152490;27;20201;-65
2023/12/25 03:30:37;;;;;;;14.53;4.33;;;9.10;99.90;;;;;;5138563;27;20198;-65
2023/12/25 03:33:07;;;;;;;18.00;4.43;;;9.10;99.90;;;;;;5143979;27;20209;-64
2023/12/25 03:35:37;;;;;;;16.73;4.73;;;9.10;99.90;;;;;;5132631;27;20658;-64
2023/12/25 03:38:06;;;;;;;16.57;5.53;;;9.10;99.90;;;;;;5150677;27;20249;-64
2023/12/25 03:40:35;;;;;;;21.00;5.37;;;9.20;99.90;;;;;;5151035;27;20196;-65
2023/12/25 03:43:04;;;;;;;17.23;4.60;;;9.30;99.90;;;;;;5131303;27;20261;-65
2023/12/25 03:45:32;;;;;;;19.30;4.83;;;9.40;99.90;;;;;;5150525;27;20200;-63
2023/12/25 03:48:01;;;;;;;20.23;4.30;;;9.30;99.90;;;;;;5131538;27;20286;-64
2023/12/25 03:50:31;;;;;;;13.13;4.27;;;9.40;99.90;;;;;;5150704;27;20913;-66
2023/12/25 03:53:01;;;;;;;23.07;5.00;;;9.30;99.90;;;;;;5150784;27;20201;-65
2023/12/25 03:55:29;;;;;;;22.00;5.17;;;9.30;99.90;;;;;;5150451;27;20204;-65
2023/12/25 03:57:58;;;;;;;14.17;4.87;;;9.30;99.90;;;;;;5131944;27;20266;-65
2023/12/25 04:00:26;;;;;;;16.90;5.07;;;9.30;99.90;;;;;;5150662;27;20193;-66
2023/12/25 04:02:55;;;;;;;17.93;3.77;;;9.30;99.90;;;;;;5150558;27;20252;-66
2023/12/25 04:05:24;;;;;;;14.13;3.80;;;9.30;99.90;;;;;;5131822;27;20270;-65
2023/12/25 04:07:53;;;;;;;17.47;4.63;;;9.30;99.90;;;;;;5150331;27;20190;-63
2023/12/25 04:10:23;;;;;;;16.17;4.37;;;9.30;99.90;;;;;;5131816;27;20205;-65
2023/12/25 04:12:52;;;;;;;14.20;5.07;;;9.30;99.90;;;;;;5150491;27;20201;-64
2023/12/25 04:15:20;;;;;;;17.33;4.37;;;9.30;99.90;;;;;;5150571;27;20196;-64
2023/12/25 04:17:49;;;;;;;14.70;4.50;;;9.30;99.90;;;;;;5131782;27;20287;-66
2023/12/25 04:20:18;;;;;;;16.43;4.40;;;9.30;99.90;;;;;;5146679;27;20217;-66
2023/12/25 04:22:49;;;;;;;13.60;4.47;;;9.30;99.90;;;;;;5119963;28;20213;-66
2023/12/25 04:25:17;;;;;;;17.70;4.87;;;9.40;99.90;;;;;;5148349;27;20198;-65
2023/12/25 04:27:48;;;;;;;12.40;4.07;;;9.40;99.90;;;;;;5150723;27;20189;-64
2023/12/25 04:30:17;;;;;;;18.17;4.70;;;9.40;99.90;;;;;;5150553;27;20251;-64
2023/12/25 04:32:45;;;;;;;15.47;4.10;;;9.30;99.90;;;;;;5131898;27;20292;-65
2023/12/25 04:35:14;;;;;;;16.43;3.90;;;9.40;99.90;;;;;;5150607;27;20288;-64
2023/12/25 04:37:42;;;;;;;12.03;4.43;;;9.40;99.90;;;;;;5150388;27;20558;-66
2023/12/25 04:40:12;;;;;;;16.23;3.90;;;9.30;99.90;;;;;;5150299;27;20292;-66
2023/12/25 04:42:41;;;;;;;9.47;3.30;;;9.20;99.90;;;;;;5131755;27;20666;-65
2023/12/25 04:45:11;;;;;;;7.60;3.10;;;9.10;99.90;;;;;;5131399;27;20705;-65
2023/12/25 04:47:40;;;;;;;11.00;3.67;;;9.10;99.90;;;;;;5131347;27;20240;-65
2023/12/25 04:50:09;;;;;;;16.53;4.30;;;9.10;99.90;;;;;;5131484;27;20288;-65
2023/12/25 04:52:38;;;;;;;15.17;3.93;;;9.00;99.90;;;;;;5131380;27;20273;-65
2023/12/25 04:55:07;;;;;;;12.63;5.50;;;9.00;99.90;;;;;;5149934;27;20202;-66
2023/12/25 04:57:35;;;;;;;11.03;3.70;;;9.00;99.90;;;;;;5131829;27;20198;-64
2023/12/25 05:00:05;;;;;;;13.77;4.30;;;9.00;99.90;;;;;;5135331;27;20200;-63
2023/12/25 05:02:35;;;;;;;20.23;4.53;;;9.00;99.90;;;;;;5135151;27;20211;-65
2023/12/25 05:05:04;;;;;;;17.10;4.50;;;9.00;99.90;;;;;;5134812;27;20277;-64
2023/12/25 05:07:33;;;;;;;15.17;4.50;;;9.00;99.90;;;;;;5153770;27;20195;-65
2023/12/25 05:10:02;;;;;;;13.03;4.67;;;8.90;99.90;;;;;;5134485;27;20205;-66
2023/12/25 05:12:31;;;;;;;19.90;4.03;;;8.90;99.90;;;;;;5153724;27;20219;-65
2023/12/25 05:14:59;;;;;;;13.60;4.47;;;8.90;99.90;;;;;;5123770;27;20553;-65
2023/12/25 05:17:28;;;;;;;12.93;4.73;;;8.90;99.90;;;;;;5131418;27;20217;-66
2023/12/25 05:19:58;;;;;;;14.83;4.17;;;8.90;99.90;;;;;;5132864;27;20658;-65
2023/12/25 05:22:26;;;;;;;21.80;4.33;;;9.00;99.90;;;;;;5133142;27;20208;-67
2023/12/25 05:24:55;;;;;;;16.73;4.30;;;9.00;99.90;;;;;;5132320;27;20228;-66
2023/12/25 05:27:24;;;;;;;13.23;3.80;;;9.00;99.90;;;;;;5132591;27;20218;-66
2023/12/25 05:29:52;;;;;;;20.33;4.03;;;9.00;99.90;;;;;;5132377;27;20198;-66
2023/12/25 05:32:21;;;;;;;13.33;3.90;;;9.00;99.90;;;;;;5132440;27;20277;-66
2023/12/25 05:34:49;;;;;;;13.57;4.30;;;9.00;99.90;;;;;;5132515;27;20290;-66
2023/12/25 05:37:20;;;;;;;12.90;3.67;;;9.00;99.90;;;;;;5132286;27;20258;-66
2023/12/25 05:39:49;;;;;;;12.03;4.20;;;8.90;99.90;;;;;;5132028;27;20225;-66
2023/12/25 05:42:17;;;;;;;16.13;4.70;;;9.00;99.90;;;;;;5132244;27;20637;-67
2023/12/25 05:44:46;;;;;;;10.13;3.53;;;9.10;99.90;;;;;;5132129;27;20586;-66
2023/12/25 05:47:15;;;;;;;18.07;4.27;;;9.10;99.90;;;;;;5131743;27;20230;-66
2023/12/25 05:49:43;;;;;;;12.73;3.30;;;9.10;99.90;;;;;;5132092;27;20282;-65
2023/12/25 05:52:12;;;;;;;18.10;4.40;;;9.00;99.90;;;;;;5131957;27;20337;-63
2023/12/25 05:54:42;;;;;;;15.97;4.07;;;9.00;99.90;;;;;;5135971;27;20208;-66
2023/12/25 05:57:11;;;;;;;11.40;3.53;;;9.10;99.90;;;;;;5137651;27;20206;-65
2023/12/25 05:59:40;;;;;;;10.00;4.00;;;9.10;99.90;;;;;;5152592;27;20337;-65
2023/12/25 06:02:11;;;;;;;9.60;3.43;;;9.20;99.90;;;;;;5152746;27;20200;-65
2023/12/25 06:04:39;;;;;;;16.70;3.60;;;9.20;99.90;;;;;;5152451;27;20229;-65
2023/12/25 06:07:09;;;;;;;10.80;3.97;;;9.20;99.90;;;;;;5152457;27;20189;-64
2023/12/25 06:09:38;;;;;;;14.63;3.70;;;9.20;99.90;;;;;;5146560;27;20221;-66
2023/12/25 06:12:08;;;;;;;10.57;3.43;;;9.20;99.90;;;;;;5137965;27;20200;-64
2023/12/25 06:14:37;;;;;;;18.00;4.70;;;9.20;99.90;;;;;;5152369;27;20202;-64
2023/12/25 06:17:06;;;;;;;12.33;4.87;;;9.20;99.90;;;;;;5152382;27;20808;-65
2023/12/25 06:19:34;;;;;;;15.77;3.80;;;9.20;99.90;;;;;;5152241;27;20201;-64
2023/12/25 06:22:03;;;;;;;12.60;4.27;;;9.20;99.90;;;;;;5152493;27;20209;-64
2023/12/25 06:24:32;;;;;;;14.33;4.27;;;9.30;99.90;;;;;;5152150;27;20689;-63
2023/12/25 06:27:01;;;;;;;15.17;4.37;;;9.30;99.90;;;;;;5152232;27;20217;-65
2023/12/25 06:29:31;;;;;;;14.83;4.07;;;9.30;99.90;;;;;;5152386;27;20651;-64
2023/12/25 06:32:00;;;;;;;15.63;4.73;;;9.30;99.90;;;;;;5152197;27;20218;-65
2023/12/25 06:34:28;;;;;;;15.30;4.17;;;9.30;99.90;;;;;;5152548;27;20215;-64
2023/12/25 06:36:57;;;;;;;11.60;4.17;;;9.30;99.90;;;;;;5152253;27;20805;-63
2023/12/25 06:39:25;;;;;;;15.43;4.07;;;9.30;99.90;;;;;;5152165;27;20275;-65
2023/12/25 06:41:54;;;;;;;11.00;5.03;;;9.30;99.90;;;;;;5152137;27;20204;-64
2023/12/25 06:44:23;;;;;;;14.27;4.20;;;9.30;99.90;;;;;;5152251;27;20551;-64
2023/12/25 06:46:53;;;;;;;14.73;3.80;;;9.20;99.90;;;;;;5143298;27;20243;-64
2023/12/25 06:49:22;;;;;;;11.77;4.37;;;9.20;99.90;;;;;;5151671;27;20200;-65
2023/12/25 06:51:50;;;;;;;21.90;4.63;;;9.10;99.90;;;;;;5152209;27;20198;-63
2023/12/25 06:54:19;;;;;;;14.93;4.33;;;9.10;99.90;;;;;;5151562;27;20198;-64
2023/12/25 06:56:48;;;;;;;11.00;3.97;;;9.00;99.90;;;;;;5151881;27;20830;-65
2023/12/25 06:59:16;;;;;;;16.63;4.00;;;9.00;99.90;;;;;;5151787;27;20220;-63
2023/12/25 07:01:45;;;;;;;17.30;3.87;;;9.00;99.90;;;;;;5143290;27;20193;-63
2023/12/25 07:04:15;;;;;;;14.80;4.07;;;8.90;99.90;;;;;;5150731;27;20288;-64
2023/12/25 07:06:43;;;;;;;13.37;4.57;;;8.90;99.90;;;;;;5150723;27;20201;-64
2023/12/25 07:09:14;;;;;;;13.53;4.20;;;8.90;99.90;;;;;;5150312;27;20213;-63
2023/12/25 07:11:43;;;;;;;18.87;4.67;;;8.90;99.90;;;;;;5150663;27;20651;-63
2023/12/25 07:14:11;;;;;;;21.43;4.93;;;8.90;99.90;;;;;;5151162;27;20597;-63
2023/12/25 07:16:40;;;;;;;18.03;4.97;;;8.90;99.90;;;;;;5138027;27;20253;-62
2023/12/25 07:19:08;;;;;;;16.13;4.47;;;8.90;99.90;;;;;;5145457;27;20192;-61
2023/12/25 07:21:39;;;;;;;18.07;5.80;;;8.90;99.90;;;;;;5142081;27;20220;-63
2023/12/25 07:24:08;;;;;;;23.80;5.17;;;8.90;99.90;;;;;;5136088;27;20205;-63
2023/12/25 07:26:37;;;;;;;16.60;4.30;;;8.90;99.90;;;;;;5130166;27;20222;-63
2023/12/25 07:29:05;;;;;;;14.70;4.77;;;8.90;99.90;;;;;;5130144;27;20209;-64
2023/12/25 07:31:34;;;;;;;19.13;5.70;;;8.90;99.90;;;;;;5130283;27;20194;-64
2023/12/25 07:34:03;;;;;;;23.30;8.17;;;8.90;99.90;;;;;;5129160;27;20201;-61
2023/12/25 07:36:32;;;;;;;17.20;5.37;;;8.90;99.90;;;;;;5147035;27;20659;-62
2023/12/25 07:39:03;;;;;;;16.20;5.10;;;8.90;99.90;;;;;;5151178;27;20196;-63
2023/12/25 07:41:33;;;;;;;17.00;4.93;;;8.90;99.90;;;;;;5151182;27;20549;-62
2023/12/25 07:44:02;;;;;;;19.23;4.67;;;8.90;99.90;;;;;;5151238;27;20200;-63
2023/12/25 07:46:30;;;;;;;19.67;5.53;;;8.90;99.90;;;;;;5142338;27;20236;-62
2023/12/25 07:48:59;;;;;;;21.30;5.90;;;9.00;99.90;;;;;;5150552;27;20206;-63
2023/12/25 07:51:30;;;;;;;16.63;4.87;;;9.00;99.90;;;;;;5144939;27;20212;-62
2023/12/25 07:53:59;;;;;;;16.00;5.00;;;8.90;99.90;;;;;;5130319;27;20228;-62
2023/12/25 07:56:29;;;;;;;16.90;5.40;;;9.00;99.90;;;;;;5130140;27;20189;-62
2023/12/25 07:58:58;;;;;;;19.17;6.00;;;9.00;99.90;;;;;;5130185;27;20733;-62
2023/12/25 08:01:26;;;;;;;12.80;4.90;;;9.00;99.90;;;;;;5129970;27;20209;-62
2023/12/25 08:03:55;;;;;;;19.97;5.70;;;8.90;99.90;;;;;;5129879;27;20212;-63
2023/12/25 08:06:23;;;;;;;16.97;5.30;;;8.90;99.90;;;;;;5130276;27;20598;-63
2023/12/25 08:08:53;;;;;;;14.53;4.97;;;8.90;99.90;;;;;;5129965;27;20564;-62
2023/12/25 08:11:22;;;;;;;22.33;6.30;;;8.90;99.90;;;;;;5129973;27;20202;-61
2023/12/25 08:13:54;;;;;;;19.10;4.80;;;8.90;99.90;;;;;;5129967;28;20764;-63
2023/12/25 08:16:23;;;;;;;18.70;5.83;;;8.80;99.90;;;;;;5129846;28;20596;-64
2023/12/25 08:18:52;;;;;;;18.37;5.50;;;8.80;99.90;;;;;;5129411;28;20189;-64
2023/12/25 08:21:22;;;;;;;16.47;5.30;;;9.00;99.90;;;;;;5131438;27;20263;-63
2023/12/25 08:23:51;;;;;;;19.40;5.30;;;9.00;99.90;;;;;;5149746;27;20200;-63
2023/12/25 08:26:20;;;;;;;13.20;4.50;;;9.10;99.90;;;;;;5150267;27;20213;-63
2023/12/25 08:28:52;;;;;;;17.83;5.47;;;9.00;99.90;;;;;;5150624;27;20197;-64
2023/12/25 08:31:22;;;;;;;24.10;6.60;;;9.10;99.90;;;;;;5150759;27;20564;-64
2023/12/25 08:33:49;;;;;;;22.70;8.60;;;9.00;99.90;;;;;;5152934;27;20188;-64
2023/12/25 08:36:18;;;;;;;12.70;4.93;;;8.90;99.90;;;;;;5154959;27;20228;-64
2023/12/25 08:38:47;;;;;;;16.57;4.53;;;9.00;99.90;;;;;;5154882;27;20198;-64
2023/12/25 08:41:15;;;;;;;18.00;5.17;;;8.90;99.90;;;;;;5154690;27;20552;-64
2023/12/25 08:43:44;;;;;;;17.93;5.10;;;8.90;99.90;;;;;;5154503;27;20209;-64
2023/12/25 08:46:16;;;;;;;21.00;5.33;;;8.90;99.90;;;;;;5154555;27;20230;-63
2023/12/25 08:48:46;;;;;;;20.20;5.70;;;8.80;99.90;;;;;;5154582;27;20205;-63
2023/12/25 08:51:15;;;;;;;19.43;6.17;;;8.80;99.90;;;;;;5154408;27;20194;-63
2023/12/25 08:53:44;;;;;;;17.63;5.17;;;8.90;99.90;;;;;;5154678;27;20194;-63
2023/12/25 08:56:22;;;;;;;17.57;5.87;;;8.80;99.90;;;;;;5154378;27;20693;-62
2023/12/25 08:58:50;;;;;;;16.27;4.93;;;8.90;99.90;;;;;;5154723;27;20225;-63
2023/12/25 09:01:19;;;;;;;20.53;6.00;;;8.90;99.90;;;;;;5154239;27;20198;-62
2023/12/25 09:03:49;;;;;;;20.63;5.60;;;8.90;99.90;;;;;;5154450;27;20257;-63
2023/12/25 09:06:18;;;;;;;20.40;5.70;;;8.90;99.90;;;;;;5090146;28;20232;-63
2023/12/25 09:08:48;;;;;;;24.53;5.60;;;8.80;99.90;;;;;;5090043;28;20202;-62
2023/12/25 09:11:17;;;;;;;15.47;5.20;;;8.80;99.90;;;;;;5089996;28;20211;-63
2023/12/25 09:13:46;;;;;;;15.90;5.23;;;8.80;99.90;;;;;;5090138;28;20757;-63
2023/12/25 09:16:15;;;;;;;18.37;5.90;;;8.70;99.90;;;;;;5089640;28;20630;-62
2023/12/25 09:18:43;;;;;;;14.43;5.10;;;8.80;99.90;;;;;;5090249;28;20249;-64
2023/12/25 09:21:17;;;;;;;14.37;4.87;;;8.80;99.90;;;;;;5090043;28;20752;-65
2023/12/25 09:23:45;;;;;;;12.57;4.57;;;8.80;99.90;;;;;;5100941;27;20212;-62
2023/12/25 09:26:19;;;;;;;23.20;4.77;;;8.90;99.90;;;;;;5133379;27;20230;-65
2023/12/25 09:28:48;;;;;;;18.27;4.80;;;8.90;98.70;;;;;;5151693;27;20250;-62
2023/12/25 09:31:17;;;;;;;16.60;5.50;;;9.00;97.80;;;;;;5153523;27;20251;-66
2023/12/25 09:33:46;;;;;;;15.17;5.10;;;9.10;98.00;;;;;;5154160;27;20913;-66
2023/12/25 09:36:16;;;;;;;18.67;4.13;;;9.30;97.10;;;;;;5153735;27;20543;-67
2023/12/25 09:38:45;;;;;;;18.07;4.70;;;9.10;96.10;;;;;;5153847;27;20271;-64
2023/12/25 09:41:15;;;;;;;21.13;5.20;;;9.10;95.90;;;;;;5153453;27;20665;-64
2023/12/25 09:43:44;;;;;;;12.50;4.50;;;9.00;94.80;;;;;;5153097;27;20674;-68
2023/12/25 09:46:14;;;;;;;16.43;5.47;;;8.90;94.20;;;;;;5151480;27;20240;-65
2023/12/25 09:48:42;;;;;;;14.57;4.63;;;8.90;94.60;;;;;;5153593;27;20296;-63
2023/12/25 09:51:14;;;;;;;14.40;4.60;;;8.90;93.80;;;;;;5153552;27;20221;-63
2023/12/25 09:53:44;;;;;;;12.27;4.40;;;9.00;93.90;;;;;;5068945;28;20250;-64
2023/12/25 09:56:15;;;;;;;13.30;4.10;;;9.00;94.00;;;;;;5068184;28;20219;-64
2023/12/25 09:58:45;;;;;;;10.50;4.67;;;9.00;93.40;;;;;;5068931;28;20662;-60
2023/12/25 10:01:14;;;;;;;14.63;4.90;;;8.90;94.30;;;;;;5068414;28;20303;-62
2023/12/25 10:03:45;;;;;;;8.07;4.00;;;8.90;94.10;;;;;;5068684;28;20277;-62
2023/12/25 10:06:14;;;;;;;13.27;4.20;;;9.00;94.60;;;;;;5068763;28;20227;-63
2023/12/25 10:08:45;;;;;;;17.40;4.63;;;9.00;94.70;;;;;;5068559;28;20203;-63
2023/12/25 10:11:14;;;;;;;10.13;5.13;;;8.90;95.00;;;;;;5084462;27;20242;-62
2023/12/25 10:13:43;;;;;;;14.83;5.03;;;8.80;95.50;;;;;;5152728;27;20273;-62
2023/12/25 10:16:12;;;;;;;12.27;4.20;;;8.90;94.90;;;;;;5152785;27;20628;-63
2023/12/25 10:18:41;;;;;;;12.20;3.97;;;9.00;93.80;;;;;;5152716;27;20656;-62
2023/12/25 10:21:10;;;;;;;12.87;3.60;;;8.90;93.20;;;;;;5152863;27;20194;-61
2023/12/25 10:23:39;;;;;;;12.80;5.03;;;8.90;92.90;;;;;;5152769;27;20219;-63
2023/12/25 10:26:09;;;;;;;13.13;4.77;;;8.90;93.40;;;;;;5152223;27;20205;-62
2023/12/25 10:28:38;;;;;;;14.30;4.47;;;8.80;93.30;;;;;;5152234;27;20205;-61
2023/12/25 10:31:07;;;;;;;11.77;4.07;;;8.70;94.70;;;;;;5152563;27;20190;-63
2023/12/25 10:33:37;;;;;;;13.00;4.90;;;8.80;94.80;;;;;;5152679;27;20196;-62
2023/12/25 10:36:08;;;;;;;14.93;4.47;;;8.70;93.70;;;;;;5152642;27;20253;-62
2023/12/25 10:38:37;;;;;;;16.30;5.90;;;8.60;93.80;;;;;;5152313;27;20311;-63
2023/12/25 10:41:22;;;;;;;8.37;3.40;;;8.70;94.40;;;;;;5152219;27;20205;-62
2023/12/25 10:43:53;;;;;;;10.80;4.20;;;8.70;93.50;;;;;;5152084;27;20200;-62
2023/12/25 10:46:24;;;;;;;16.13;4.03;;;8.70;93.70;;;;;;5152140;27;20228;-63
2023/12/25 10:48:55;;;;;;;17.03;6.93;;;8.70;93.80;;;;;;5152384;27;20706;-64
2023/12/25 10:51:30;;;;;;;13.80;4.77;;;8.70;94.10;;;;;;5152426;27;20273;-63
2023/12/25 10:54:00;;;;;;;9.33;4.00;;;8.70;93.70;;;;;;5132947;27;20205;-63
2023/12/25 10:56:33;;;;;;;10.47;4.37;;;8.70;94.20;;;;;;5151388;27;20262;-63
2023/12/25 10:59:08;;;;;;;15.73;5.07;;;8.70;93.80;;;;;;5150881;27;20200;-63
2023/12/25 11:01:39;;;;;;;14.77;5.20;;;8.80;94.00;;;;;;5151870;27;20212;-62
2023/12/25 11:04:08;;;;;;;10.47;4.40;;;8.70;93.60;;;;;;5151750;27;20196;-63
2023/12/25 11:06:36;;;;;;;10.33;4.00;;;8.80;93.90;;;;;;5151599;27;20233;-63
2023/12/25 11:09:06;;;;;;;13.27;4.57;;;8.70;93.00;;;;;;5151751;27;20217;-62
2023/12/25 11:11:36;;;;;;;14.23;4.20;;;8.60;93.20;;;;;;5151461;27;20196;-62
2023/12/25 11:14:06;;;;;;;12.20;4.03;;;8.60;93.60;;;;;;5151680;27;20205;-62
2023/12/25 11:16:36;;;;;;;16.60;4.43;;;8.60;93.60;;;;;;5151638;27;20207;-62
2023/12/25 11:19:05;;;;;;;10.93;4.27;;;8.60;93.90;;;;;;5151375;27;20189;-63
2023/12/25 11:21:35;;;;;;;16.27;5.37;;;8.50;93.90;;;;;;5151628;27;20227;-64
2023/12/25 11:24:03;;;;;;;14.70;4.97;;;8.50;94.10;;;;;;5151382;27;20207;-64
2023/12/25 11:26:32;;;;;;;18.13;4.43;;;8.50;94.60;;;;;;5150681;27;20250;-64
2023/12/25 11:29:06;;;;;;;22.37;4.90;;;8.50;93.50;;;;;;5150707;27;20291;-64
2023/12/25 11:31:43;;;;;;;14.33;4.53;;;8.50;93.80;;;;;;5151472;27;20193;-63
2023/12/25 11:34:22;;;;;;;14.60;4.03;;;8.40;93.40;;;;;;5151776;27;20207;-64
2023/12/25 11:36:57;;;;;;;18.30;5.63;;;8.40;93.80;;;;;;5132161;27;20210;-63
2023/12/25 11:39:27;;;;;;;11.53;4.93;;;8.30;94.20;;;;;;5151635;27;20204;-63
2023/12/25 11:41:56;;;;;;;16.67;4.13;;;8.40;93.90;;;;;;5151172;27;20193;-64
2023/12/25 11:44:33;;;;;;;12.97;5.00;;;8.40;93.90;;;;;;5150825;27;20200;-63
2023/12/25 11:47:03;;;;;;;13.23;5.30;;;8.40;93.70;;;;;;5150524;27;20246;-64
2023/12/25 11:49:33;;;;;;;12.60;4.50;;;8.50;93.60;;;;;;5150904;27;20228;-64
2023/12/25 11:52:03;;;;;;;18.83;4.80;;;8.40;93.20;;;;;;5150593;27;20250;-63
2023/12/25 11:54:32;;;;;;;8.73;4.17;;;8.40;93.00;;;;;;5150553;27;20318;-63
2023/12/25 11:57:02;;;;;;;16.83;4.37;;;8.30;93.00;;;;;;5150385;27;20189;-64
2023/12/25 11:59:33;;;;;;;16.20;4.83;;;8.30;93.40;;;;;;5150685;27;20205;-63
2023/12/25 12:02:07;;;;;;;17.33;5.23;;;8.30;92.70;;;;;;5150399;27;20208;-63
2023/12/25 12:04:36;;;;;;;22.47;5.67;;;8.30;93.50;;;;;;5150274;27;20807;-62
2023/12/25 12:07:04;;;;;;;11.53;4.17;;;8.30;92.70;;;;;;5149702;27;20196;-63
2023/12/25 12:09:33;;;;;;;15.07;5.03;;;8.30;92.30;;;;;;5149945;27;20197;-62
2023/12/25 12:12:02;;;;;;;21.53;4.90;;;8.30;93.10;;;;;;5150362;27;20602;-65
2023/12/25 12:14:32;;;;;;;13.23;4.63;;;8.30;92.60;;;;;;5150294;27;20279;-64
2023/12/25 12:17:00;;;;;;;16.10;4.50;;;8.30;92.70;;;;;;5150138;27;20190;-63
2023/12/25 12:19:29;;;;;;;12.67;4.80;;;8.20;92.70;;;;;;5150146;27;20592;-64
2023/12/25 12:21:58;;;;;;;14.07;4.43;;;8.20;93.00;;;;;;5149956;27;20197;-64
2023/12/25 12:24:27;;;;;;;10.90;3.30;;;8.20;93.70;;;;;;5150223;27;20691;-64
2023/12/25 12:27:04;;;;;;;13.50;4.63;;;8.20;92.70;;;;;;5149871;27;20191;-63
2023/12/25 12:29:34;;;;;;;19.43;5.77;;;8.20;93.40;;;;;;5150374;27;20216;-63
2023/12/25 12:32:03;;;;;;;12.80;4.37;;;8.30;92.20;;;;;;5150357;27;20336;-64
2023/12/25 12:34:32;;;;;;;23.27;5.70;;;8.30;92.00;;;;;;5150445;27;20196;-64
2023/12/25 12:37:02;;;;;;;20.37;4.43;;;8.20;92.70;;;;;;5138150;27;20233;-63
2023/12/25 12:39:31;;;;;;;15.67;5.37;;;8.20;92.50;;;;;;5146106;27;20209;-63
2023/12/25 12:42:00;;;;;;;17.47;4.97;;;8.20;92.90;;;;;;5131227;27;20200;-64
2023/12/25 12:44:30;;;;;;;18.43;5.00;;;8.30;92.50;;;;;;5129036;27;20215;-63
2023/12/25 12:47:00;;;;;;;15.47;4.43;;;8.40;92.20;;;;;;5129020;28;20968;-63
2023/12/25 12:49:29;;;;;;;20.27;5.20;;;8.40;91.50;;;;;;5135332;27;20217;-63
2023/12/25 12:51:58;;;;;;;15.07;4.63;;;8.30;93.10;;;;;;5121057;28;20221;-64
2023/12/25 12:54:27;;;;;;;17.47;5.37;;;8.20;92.60;;;;;;5129272;28;20665;-64
2023/12/25 12:56:55;;;;;;;15.97;4.93;;;8.30;93.00;;;;;;5139920;27;20206;-65
2023/12/25 12:59:25;;;;;;;14.87;4.40;;;8.20;93.70;;;;;;5138442;27;20210;-64